This is the latest recevied weather packets stored in our database for station/object SQ4LOL-9. If no packets are shown the sender has not sent any weather packets the latest 10 day(s).
| Time | Temp. | Humidity | Pressure | Rain* | Wind** | Luminosity | Snow |
|---|---|---|---|---|---|---|---|
| 1778251438 | 15° C | 46% | 997.2 hPa | - | - | - | - |
| 1778251432 | 15° C | 46% | 997.4 hPa | - | - | - | - |
| 1778251425 | 15° C | 46% | 997.7 hPa | - | - | - | - |
| 1778251417 | 15° C | 46% | 998.1 hPa | - | - | - | - |
| 1778251410 | 15° C | 45% | 998.1 hPa | - | - | - | - |
| 1778251403 | 14.44° C | 45% | 998.2 hPa | - | - | - | - |
| 1778251397 | 14.44° C | 44% | 998.2 hPa | - | - | - | - |
| 1778251389 | 14.44° C | 43% | 998.1 hPa | - | - | - | - |
| 1778251359 | 13.89° C | 43% | 998 hPa | - | - | - | - |
| 1778183039 | 15.56° C | 47% | 994.7 hPa | - | - | - | - |
| 1778183033 | 15° C | 47% | 994.8 hPa | - | - | - | - |
| 1778164507 | 30.56° C | 30% | 991.8 hPa | - | - | - | - |
| 1778164474 | 30° C | 30% | 991.7 hPa | - | - | - | - |
| 1778164468 | 30° C | 30% | 991.8 hPa | - | - | - | - |
| 1778164460 | 30° C | 30% | 991.6 hPa | - | - | - | - |
| 1778164454 | 30° C | 30% | 991.3 hPa | - | - | - | - |
| 1778164226 | 30.56° C | 29% | 991.8 hPa | - | - | - | - |
| 1778164209 | 30.56° C | 29% | 991.9 hPa | - | - | - | - |
| 1778164203 | 30.56° C | 29% | 991.9 hPa | - | - | - | - |
| 1778164190 | 30.56° C | 29% | 991.8 hPa | - | - | - | - |
| 1778163871 | 30.56° C | 29% | 991.9 hPa | - | - | - | - |
| 1778163858 | 30.56° C | 29% | 991.7 hPa | - | - | - | - |
| 1778163845 | 30.56° C | 29% | 991.8 hPa | - | - | - | - |
| 1778163819 | 30.56° C | 29% | 991.8 hPa | - | - | - | - |
| 1778163812 | 30.56° C | 30% | 991.9 hPa | - | - | - | - |
* Rain since midnight (hover to see other rain measurements)
** Current wind speed in m/s (hover to see current wind gust speed)